Dawson Community Airport
KGDV : now visible

Airfield :











YOU CAN JOIN US ON...

 
LOGIN :

Register | Disclaimer

   EN    FR    IT 

 









Legend :    VFR   Marginal VFR   IFR   Intensive IFR   Very Intensive IFR
Visi :
Ceiling :
>= 8 km
>= 3000ft
5 to 8 km
1000 to 3000 ft
1500m to 5 km
500 to 1000 ft
800 to 1500m
200 to 500 ft
< 800m
< 200 ft
Symbols :   Thunderstorms  Fog  Heavy snow  Heavy precipitations  Wind > 20 kt







- Airport Elevation : 2458 ft


KGDV - Dawson Community

CURRENT METAR :
  • 191256Z AUTO 05008KT 10SM CLR 04/00 A3011 RMK AO2 SLP213 T00390000

EXPIRED METARs :
  • 191156Z AUTO 03008KT 10SM CLR 02/M01 A3010 RMK AO2 SLP214 70034 T00171011 10033 20017 53004 FZRANO
  • 191056Z AUTO 03010KT 10SM CLR 03/M01 A3010 RMK AO2 SLP210 T00281006

TAF KGDV
Valid from the 19 at 12:00 until the 20 at 12:00 UTC


191130Z 1912/2012 VRB05KT P6SM SCT050 OVC090
FM192000 08009KT P6SM SCT040 BKN060
KZLC FIR / North America



MET'MAP, your aeronautical weather chart ! - Copyright ORBIFLY December 2007 - Disclaimer

ORBIFLY MET'MAP TEAM :

Programming & Development : Alexandra Zaïnal
Concept & Development : Baudouin d'Aumeries
Co-Development & Prog : Marc-Olivier Méhu
Technical & hardware support : Manuel Goepfert

Contact : metmap@orbifly.com




SOURCES & CREDITS :

   NOAA       Earth
Advisory